Time;durP1;ratioP1;P1;durP2;ratioP2;P2;SDS_P1;SDS_P2;PMS_P1;PMS_P2;Temp;Humidity;BMP_temperature;BMP_pressure;BME280_temperature;BME280_humidity;BME280_pressure;Samples;Min_cycle;Max_cycle;Signal;HPM_P1;HPM_P2
2022/04/05 00:00:49;;;;;;;29.55;16.77;;;;;;;1.97;95.52;95757.47;5105364;28;20390;-75
2022/04/05 00:03:17;;;;;;;27.65;15.30;;;;;;;1.95;95.25;95750.78;5105913;28;20047;-75
2022/04/05 00:05:43;;;;;;;26.00;14.02;;;;;;;1.96;94.89;95760.44;5106345;28;20052;-75
2022/04/05 00:08:10;;;;;;;28.23;16.55;;;;;;;1.91;95.18;95765.84;5104679;28;20523;-74
2022/04/05 00:10:37;;;;;;;27.80;14.57;;;;;;;1.94;95.25;95751.88;5105970;28;20054;-75
2022/04/05 00:13:05;;;;;;;25.65;14.00;;;;;;;1.90;94.65;95745.44;5105703;28;20075;-75
2022/04/05 00:15:32;;;;;;;23.23;13.50;;;;;;;1.94;94.31;95731.19;5106430;28;20493;-75
2022/04/05 00:17:58;;;;;;;23.75;14.95;;;;;;;1.89;94.34;95733.91;5107074;28;20055;-75
2022/04/05 00:20:27;;;;;;;25.02;13.10;;;;;;;1.87;94.45;95735.25;5106240;28;20055;-75
2022/04/05 00:22:53;;;;;;;23.55;13.20;;;;;;;1.86;94.99;95726.41;5105646;28;20047;-75
2022/04/05 00:25:20;;;;;;;22.52;13.10;;;;;;;1.87;94.46;95725.31;5106482;28;20051;-75
2022/04/05 00:27:47;;;;;;;21.95;11.80;;;;;;;1.91;95.10;95720.19;5106210;28;20055;-75
2022/04/05 00:30:15;;;;;;;20.77;11.30;;;;;;;1.87;94.51;95722.63;5106113;28;20125;-75
2022/04/05 00:32:41;;;;;;;26.00;13.30;;;;;;;1.86;94.86;95718.34;5105385;28;20073;-75
2022/04/05 00:35:09;;;;;;;25.02;13.95;;;;;;;1.84;94.27;95720.50;5105945;28;20047;-75
2022/04/05 00:37:37;;;;;;;32.97;11.55;;;;;;;1.93;94.58;95712.66;5106288;28;20052;-75
2022/04/05 00:40:06;;;;;;;38.03;13.38;;;;;;;1.90;94.57;95705.19;5105441;28;20043;-75
2022/04/05 00:42:33;;;;;;;35.13;12.88;;;;;;;1.91;94.46;95712.16;5106515;28;20134;-75
2022/04/05 00:45:00;;;;;;;29.80;11.80;;;;;;;2.03;93.98;95707.22;5108714;28;20048;-75
2022/04/05 00:47:26;;;;;;;33.67;11.73;;;;;;;2.09;93.67;95700.75;5110011;27;20050;-76
2022/04/05 00:49:54;;;;;;;33.72;12.02;;;;;;;2.18;92.93;95704.41;5109269;28;20051;-75
2022/04/05 00:52:22;;;;;;;22.02;11.18;;;;;;;2.22;91.97;95705.47;5109649;28;20051;-76
2022/04/05 00:54:52;;;;;;;24.83;12.43;;;;;;;2.28;91.63;95711.59;5109413;28;20055;-75
2022/04/05 00:57:21;;;;;;;22.02;10.95;;;;;;;2.30;91.08;95691.44;5109709;28;20805;-75
2022/04/05 00:59:50;;;;;;;17.35;9.98;;;;;;;2.38;90.09;95698.09;5109926;28;20044;-75
2022/04/05 01:02:19;;;;;;;18.27;10.45;;;;;;;2.43;89.95;95692.69;5109031;28;20073;-75
2022/04/05 01:04:47;;;;;;;18.13;10.73;;;;;;;2.49;89.96;95688.06;5109855;28;20054;-75
2022/04/05 01:07:16;;;;;;;18.42;11.20;;;;;;;2.46;89.25;95694.81;5108603;28;20082;-75
2022/04/05 01:09:42;;;;;;;19.08;10.23;;;;;;;2.52;89.33;95692.88;5109938;28;20044;-75
2022/04/05 01:12:12;;;;;;;18.15;10.40;;;;;;;2.56;88.82;95677.78;5108526;28;20409;-75
2022/04/05 01:14:40;;;;;;;19.38;10.10;;;;;;;2.56;89.07;95683.97;5109890;28;20061;-75
2022/04/05 01:17:07;;;;;;;18.15;10.65;;;;;;;2.56;88.27;95683.16;5108413;28;20528;-75
2022/04/05 01:19:35;;;;;;;17.00;10.23;;;;;;;2.58;88.36;95670.25;5109497;28;20051;-75
2022/04/05 01:22:02;;;;;;;20.35;10.52;;;;;;;2.60;87.41;95662.69;5108600;28;20054;-76
2022/04/05 01:24:30;;;;;;;19.17;11.23;;;;;;;2.58;87.47;95660.28;5108765;28;20051;-75
2022/04/05 01:26:58;;;;;;;19.40;10.98;;;;;;;2.57;87.03;95657.88;5109339;28;20055;-75
2022/04/05 01:29:27;;;;;;;19.55;11.05;;;;;;;2.54;86.86;95671.88;5108371;28;20376;-75
2022/04/05 01:31:56;;;;;;;22.50;10.45;;;;;;;2.57;87.50;95650.63;5109476;28;20048;-75
2022/04/05 01:34:25;;;;;;;21.65;10.48;;;;;;;2.58;86.93;95654.91;5108091;28;20044;-75
2022/04/05 01:36:53;;;;;;;23.08;10.77;;;;;;;2.58;86.75;95670.25;5109478;28;20050;-75
2022/04/05 01:39:21;;;;;;;24.13;10.30;;;;;;;2.57;86.98;95668.63;5108077;28;20059;-75
2022/04/05 01:41:52;;;;;;;22.92;10.35;;;;;;;2.55;86.75;95657.34;5108935;28;20133;-75
2022/04/05 01:44:18;;;;;;;18.02;10.70;;;;;;;2.55;87.24;95665.41;5108257;28;20043;-75
2022/04/05 01:46:45;;;;;;;19.35;9.02;;;;;;;2.61;86.80;95665.09;5108398;28;20734;-75
2022/04/05 01:49:13;;;;;;;18.88;9.80;;;;;;;2.71;86.82;95656.13;5108431;28;20044;-76
2022/04/05 01:51:41;;;;;;;20.42;9.95;;;;;;;2.60;86.40;95657.31;5107879;28;20432;-76
2022/04/05 01:54:09;;;;;;;16.15;10.13;;;;;;;2.58;86.42;95656.81;5107580;28;20565;-75
2022/04/05 01:56:42;;;;;;;17.63;9.55;;;;;;;2.69;86.36;95652.91;5108233;28;20055;-75
2022/04/05 01:59:10;;;;;;;18.88;9.50;;;;;;;2.73;86.47;95650.47;5108244;28;20409;-75
2022/04/05 02:01:36;;;;;;;20.52;10.20;;;;;;;2.80;86.27;95638.28;5107857;28;20052;-75
2022/04/05 02:04:03;;;;;;;19.52;11.10;;;;;;;2.73;85.82;95629.75;5107665;28;20044;-75
2022/04/05 02:06:30;;;;;;;18.85;11.32;;;;;;;2.65;86.08;95635.75;5108157;28;20142;-75
2022/04/05 02:08:56;;;;;;;18.85;10.32;;;;;;;2.72;86.27;95617.41;5108247;28;20048;-75
2022/04/05 02:11:23;;;;;;;18.90;10.82;;;;;;;2.69;86.50;95617.97;5107776;28;20661;-75
2022/04/05 02:13:49;;;;;;;21.73;10.93;;;;;;;2.65;86.62;95616.94;5107694;28;20083;-76
2022/04/05 02:16:17;;;;;;;19.33;9.10;;;;;;;2.70;86.46;95619.56;5108577;28;20048;-75
2022/04/05 02:18:44;;;;;;;20.92;11.13;;;;;;;2.60;86.21;95600.88;5107572;28;20609;-75
2022/04/05 02:21:11;;;;;;;20.08;9.80;;;;;;;2.66;86.11;95607.78;5108013;28;20055;-75
2022/04/05 02:23:37;;;;;;;17.15;9.38;;;;;;;2.72;85.23;95605.88;5107657;28;20071;-75
2022/04/05 02:26:04;;;;;;;17.45;9.52;;;;;;;2.75;84.61;95597.22;5107957;28;20453;-76
2022/04/05 02:28:30;;;;;;;17.30;9.20;;;;;;;2.79;85.26;95612.47;5108801;28;20591;-75
2022/04/05 02:30:57;;;;;;;18.58;9.07;;;;;;;2.83;84.83;95601.97;5108188;28;20052;-75
2022/04/05 02:33:25;;;;;;;20.98;9.40;;;;;;;2.79;84.66;95599.03;5107293;28;20684;-75
2022/04/05 02:35:51;;;;;;;24.30;9.73;;;;;;;2.84;84.13;95596.28;5108039;28;20063;-75
2022/04/05 02:38:18;;;;;;;18.45;9.45;;;;;;;2.93;83.58;95590.28;5108158;28;20051;-75
2022/04/05 02:40:45;;;;;;;16.75;8.60;;;;;;;3.02;83.29;95599.31;5107151;28;20055;-75
2022/04/05 02:43:11;;;;;;;16.20;9.25;;;;;;;2.97;82.99;95588.59;5107578;28;20125;-75
2022/04/05 02:45:38;;;;;;;14.32;7.70;;;;;;;2.94;82.41;95573.06;5107435;28;20055;-75
2022/04/05 02:48:05;;;;;;;16.77;8.07;;;;;;;3.04;81.99;95586.38;5107750;28;20051;-77
2022/04/05 02:50:33;;;;;;;15.25;8.68;;;;;;;3.04;82.33;95586.38;5107230;28;20080;-75
2022/04/05 02:52:59;;;;;;;15.50;8.68;;;;;;;3.16;81.82;95584.06;5107266;28;20058;-75
2022/04/05 02:55:26;;;;;;;14.27;8.05;;;;;;;3.14;80.48;95583.56;5107396;28;20059;-76
2022/04/05 02:57:53;;;;;;;15.98;9.05;;;;;;;3.09;80.88;95578.25;5107625;28;20039;-75
2022/04/05 03:00:19;;;;;;;15.95;8.18;;;;;;;3.17;80.78;95579.47;5107470;28;20552;-76
2022/04/05 03:02:46;;;;;;;14.88;8.85;;;;;;;3.18;80.55;95581.88;5106768;28;20053;-75
2022/04/05 03:05:14;;;;;;;16.17;8.90;;;;;;;3.17;80.72;95580.28;5107424;28;20044;-76
2022/04/05 03:07:42;;;;;;;11.57;6.95;;;;;;;3.13;79.20;95582.75;5106420;28;20477;-75
2022/04/05 03:10:11;;;;;;;14.45;7.13;;;;;;;3.17;79.15;95574.91;5107409;28;20043;-75
2022/04/05 03:12:39;;;;;;;14.95;7.78;;;;;;;3.15;79.44;95577.09;5106662;28;20517;-75
2022/04/05 03:15:07;;;;;;;14.43;7.68;;;;;;;3.15;79.20;95571.69;5107395;28;20139;-74
2022/04/05 03:17:34;;;;;;;16.98;8.98;;;;;;;3.18;78.73;95565.72;5107120;28;20059;-76
2022/04/05 03:20:01;;;;;;;14.77;7.00;;;;;;;3.24;78.23;95559.22;5107700;28;20051;-75
2022/04/05 03:22:28;;;;;;;12.88;7.07;;;;;;;3.28;78.18;95562.91;5107205;28;20117;-75
2022/04/05 03:24:56;;;;;;;15.73;7.40;;;;;;;3.32;78.03;95565.81;5107397;28;20048;-75
2022/04/05 03:27:22;;;;;;;14.43;6.97;;;;;;;3.31;77.68;95569.59;5107058;28;20059;-76
2022/04/05 03:29:49;;;;;;;14.25;7.53;;;;;;;3.23;77.82;95567.56;5106490;28;20051;-75
2022/04/05 03:32:15;;;;;;;13.52;7.25;;;;;;;3.17;78.23;95569.50;5106843;28;20044;-75
2022/04/05 03:34:42;;;;;;;11.70;7.10;;;;;;;3.22;78.34;95561.38;5106533;28;20058;-75
2022/04/05 03:37:08;;;;;;;17.85;8.25;;;;;;;3.24;76.77;95553.03;5107018;28;20144;-75
2022/04/05 03:39:35;;;;;;;16.65;7.75;;;;;;;3.32;77.08;95555.06;5106773;28;20680;-75
2022/04/05 03:42:03;;;;;;;14.73;7.63;;;;;;;3.41;76.55;95561.38;5106337;28;20501;-75
2022/04/05 03:44:29;;;;;;;12.65;6.40;;;;;;;3.42;76.53;95549.53;5110046;27;20472;-76
2022/04/05 03:46:56;;;;;;;14.10;7.28;;;;;;;3.33;77.49;95540.50;5127152;27;20513;-75
2022/04/05 03:49:23;;;;;;;14.85;7.07;;;;;;;3.34;76.80;95545.63;5126954;27;20050;-75
2022/04/05 03:51:50;;;;;;;14.77;8.18;;;;;;;3.37;77.29;95553.09;5126473;27;20540;-75
2022/04/05 03:54:16;;;;;;;13.75;6.68;;;;;;;3.42;76.88;95543.34;5127104;27;20549;-77
2022/04/05 03:56:42;;;;;;;15.98;7.93;;;;;;;3.44;76.91;95547.31;5126860;27;20066;-75
2022/04/05 03:59:10;;;;;;;17.40;7.60;;;;;;;3.43;76.72;95542.25;5126959;27;20054;-76
2022/04/05 04:01:37;;;;;;;18.08;7.63;;;;;;;3.49;76.35;95546.47;5126629;27;20054;-75
2022/04/05 04:04:03;;;;;;;21.27;7.18;;;;;;;3.51;76.31;95537.00;5126537;27;20062;-76
2022/04/05 04:06:30;;;;;;;13.20;6.53;;;;;;;3.51;76.86;95536.22;5126740;28;20421;-76
2022/04/05 04:08:57;;;;;;;18.60;7.45;;;;;;;3.53;77.30;95539.41;5126884;28;20053;-76
2022/04/05 04:11:23;;;;;;;18.38;7.13;;;;;;;3.43;78.52;95545.72;5126210;28;20066;-75
2022/04/05 04:13:50;;;;;;;16.05;7.35;;;;;;;3.21;80.83;95532.88;5125038;27;20436;-75
2022/04/05 04:16:18;;;;;;;17.15;7.18;;;;;;;3.06;82.11;95541.16;5086040;28;20048;-75
2022/04/05 04:18:44;;;;;;;21.35;7.50;;;;;;;3.00;82.77;95542.31;5088505;28;20048;-75
2022/04/05 04:21:11;;;;;;;23.88;8.25;;;;;;;2.98;83.25;95544.50;5089839;28;20048;-76
2022/04/05 04:23:38;;;;;;;26.15;8.10;;;;;;;2.98;82.61;95539.13;5089535;28;20062;-76
2022/04/05 04:26:05;;;;;;;19.33;8.00;;;;;;;3.04;82.19;95532.59;5090217;28;20067;-75
2022/04/05 04:28:32;;;;;;;15.38;7.68;;;;;;;3.04;82.24;95543.34;5090201;28;20146;-76
2022/04/05 04:30:59;;;;;;;16.52;8.23;;;;;;;3.06;82.94;95547.34;5089736;28;20052;-75
2022/04/05 04:33:27;;;;;;;15.30;8.02;;;;;;;3.10;82.05;95552.94;5089241;28;20047;-76
2022/04/05 04:35:53;;;;;;;27.55;8.40;;;;;;;3.12;81.92;95548.06;5089621;28;20054;-76
2022/04/05 04:38:20;;;;;;;14.55;7.10;;;;;;;3.10;82.25;95537.59;5089822;28;20040;-75
2022/04/05 04:40:47;;;;;;;18.73;8.25;;;;;;;3.14;81.75;95543.22;5088811;28;20114;-75
2022/04/05 04:43:15;;;;;;;16.48;7.95;;;;;;;3.13;81.92;95542.41;5089485;28;20051;-75
2022/04/05 04:45:41;;;;;;;17.98;7.65;;;;;;;3.14;81.93;95551.28;5105183;28;20047;-75
2022/04/05 04:48:08;;;;;;;18.02;7.93;;;;;;;3.12;82.36;95546.16;5110087;28;20051;-76
2022/04/05 04:50:36;;;;;;;18.77;8.20;;;;;;;3.06;83.01;95546.53;5109814;28;20105;-75
2022/04/05 04:53:03;;;;;;;22.73;8.80;;;;;;;3.01;83.97;95541.22;5108676;28;20101;-75
2022/04/05 04:55:30;;;;;;;30.02;7.53;;;;;;;3.02;84.15;95553.56;5110009;28;20539;-76
2022/04/05 04:57:57;;;;;;;20.30;8.35;;;;;;;2.93;84.92;95553.44;5109816;28;20047;-76
2022/04/05 05:00:23;;;;;;;15.82;7.75;;;;;;;2.92;85.67;95549.13;5109543;28;20085;-75
2022/04/05 05:02:51;;;;;;;17.20;8.55;;;;;;;2.86;86.02;95548.41;5109124;28;20051;-76
2022/04/05 05:05:18;;;;;;;16.75;8.75;;;;;;;2.86;86.46;95564.53;5109911;28;20054;-75
2022/04/05 05:07:47;;;;;;;16.67;8.80;;;;;;;2.81;86.05;95556.53;5109227;28;20856;-76
2022/04/05 05:10:14;;;;;;;22.10;9.10;;;;;;;2.78;86.80;95557.13;5109458;28;20172;-76
2022/04/05 05:12:41;;;;;;;18.30;9.38;;;;;;;2.79;87.42;95560.59;5109108;28;20055;-77
2022/04/05 05:15:10;;;;;;;18.27;9.45;;;;;;;2.83;87.51;95554.38;5108992;28;20055;-76
2022/04/05 05:17:36;;;;;;;16.75;8.98;;;;;;;2.88;86.91;95567.75;5109807;28;20040;-76
2022/04/05 05:20:03;;;;;;;17.85;9.80;;;;;;;2.88;86.83;95562.38;5108585;28;20052;-76
2022/04/05 05:22:29;;;;;;;16.88;8.32;;;;;;;2.88;86.56;95561.56;5109364;28;20054;-76
2022/04/05 05:24:57;;;;;;;18.63;10.15;;;;;;;2.86;86.43;95555.66;5108871;28;20054;-76
2022/04/05 05:27:24;;;;;;;17.35;9.07;;;;;;;2.85;86.46;95568.31;5109245;28;20473;-77
2022/04/05 05:29:50;;;;;;;19.25;9.90;;;;;;;2.87;86.46;95570.69;5107886;28;20062;-76
2022/04/05 05:32:17;;;;;;;17.52;9.43;;;;;;;2.88;86.43;95569.63;5109029;28;20509;-77
2022/04/05 05:34:43;;;;;;;17.42;9.65;;;;;;;2.95;86.66;95567.38;5108641;28;20056;-76
2022/04/05 05:37:09;;;;;;;19.98;10.52;;;;;;;2.97;86.83;95567.09;5109109;28;20615;-76
2022/04/05 05:39:36;;;;;;;18.90;9.90;;;;;;;2.99;86.60;95575.69;5108729;28;20421;-77
2022/04/05 05:42:05;;;;;;;21.88;10.15;;;;;;;2.99;86.41;95578.38;5108263;28;20066;-77
2022/04/05 05:44:32;;;;;;;18.85;9.93;;;;;;;3.03;86.79;95584.78;5108817;28;20043;-77
2022/04/05 05:46:59;;;;;;;19.17;10.27;;;;;;;3.06;85.94;95597.63;5108458;28;20059;-76
2022/04/05 05:49:26;;;;;;;19.48;10.25;;;;;;;3.02;86.37;95588.53;5108691;28;20035;-76
2022/04/05 05:51:52;;;;;;;20.20;10.50;;;;;;;2.97;86.60;95583.22;5107925;28;20044;-76
2022/04/05 05:54:19;;;;;;;15.50;8.85;;;;;;;2.97;87.00;95585.91;5109026;28;20051;-76
2022/04/05 05:56:46;;;;;;;19.92;10.20;;;;;;;2.94;86.72;95587.31;5108241;28;20055;-76
2022/04/05 05:59:14;;;;;;;20.48;9.93;;;;;;;2.93;87.34;95595.66;5108774;28;20083;-76
2022/04/05 06:01:40;;;;;;;20.27;10.02;;;;;;;2.88;88.01;95600.00;5107971;28;20048;-76
2022/04/05 06:04:07;;;;;;;18.98;10.52;;;;;;;2.92;88.49;95604.81;5108130;28;20059;-76
2022/04/05 06:06:33;;;;;;;21.90;10.82;;;;;;;2.93;88.62;95617.97;5108482;28;20043;-76
2022/04/05 06:09:00;;;;;;;19.10;9.63;;;;;;;2.88;88.62;95612.66;5108373;28;20749;-76
2022/04/05 06:11:27;;;;;;;20.65;10.02;;;;;;;2.85;88.49;95611.34;5108295;28;20047;-76
2022/04/05 06:13:53;;;;;;;25.35;11.55;;;;;;;2.81;89.26;95615.69;5107832;27;20715;-75
2022/04/05 06:16:21;;;;;;;35.15;12.00;;;;;;;2.77;89.82;95620.03;5128798;27;20050;-76
2022/04/05 06:18:48;;;;;;;31.50;12.02;;;;;;;2.73;90.36;95623.59;5128434;27;20066;-75
2022/04/05 06:21:15;;;;;;;26.95;11.50;;;;;;;2.62;90.60;95617.53;5128768;27;20050;-75
2022/04/05 06:23:41;;;;;;;32.45;12.20;;;;;;;2.62;91.46;95622.91;5127893;27;20047;-75
2022/04/05 06:26:08;;;;;;;32.63;12.68;;;;;;;2.64;91.78;95636.84;5128726;27;20058;-75
2022/04/05 06:28:35;;;;;;;33.92;12.05;;;;;;;2.66;91.94;95629.28;5128643;27;20050;-75
2022/04/05 06:31:02;;;;;;;41.08;13.35;;;;;;;2.70;92.07;95624.94;5128083;27;20055;-76
2022/04/05 06:33:30;;;;;;;21.80;11.73;;;;;;;2.69;92.11;95622.56;5128516;27;20050;-76
2022/04/05 06:35:58;;;;;;;30.75;11.75;;;;;;;2.76;92.42;95623.00;5128100;27;20058;-76
2022/04/05 06:38:27;;;;;;;32.08;11.38;;;;;;;2.74;91.74;95625.19;5128924;27;20494;-75
2022/04/05 06:40:54;;;;;;;28.27;12.80;;;;;;;2.80;92.24;95619.47;5127698;27;20055;-76
2022/04/05 06:43:23;;;;;;;23.23;11.20;;;;;;;2.78;92.63;95618.94;5128186;27;20083;-76
2022/04/05 06:45:50;;;;;;;23.55;12.18;;;;;;;2.81;92.78;95617.56;5109548;27;20055;-77
2022/04/05 06:48:17;;;;;;;23.10;11.32;;;;;;;2.79;93.01;95617.84;5107911;28;20134;-75
2022/04/05 06:50:46;;;;;;;21.95;11.55;;;;;;;2.79;92.97;95620.53;5107641;28;20103;-75
2022/04/05 06:53:13;;;;;;;23.65;12.85;;;;;;;2.80;92.88;95624.03;5106518;28;20152;-75
2022/04/05 06:55:40;;;;;;;28.02;12.52;;;;;;;2.83;93.67;95618.09;5108019;28;20476;-77
2022/04/05 06:58:08;;;;;;;22.48;11.88;;;;;;;2.85;93.06;95610.53;5106914;28;20047;-76
2022/04/05 07:00:35;;;;;;;25.75;12.65;;;;;;;2.82;93.60;95616.50;5108002;28;20051;-76
2022/04/05 07:03:01;;;;;;;27.65;12.93;;;;;;;2.81;93.70;95621.06;5105958;28;20047;-76
2022/04/05 07:05:28;;;;;;;22.63;11.48;;;;;;;2.88;93.55;95618.84;5108173;28;20070;-75
2022/04/05 07:07:56;;;;;;;20.33;10.77;;;;;;;2.93;92.72;95627.94;5106956;28;20071;-76
2022/04/05 07:10:23;;;;;;;21.77;11.68;;;;;;;2.96;92.75;95632.72;5107390;28;20039;-75
2022/04/05 07:12:50;;;;;;;22.80;12.07;;;;;;;3.04;92.98;95635.59;5106704;28;20122;-76
2022/04/05 07:15:17;;;;;;;24.02;11.82;;;;;;;3.08;92.15;95635.81;5106822;28;20047;-75
2022/04/05 07:17:44;;;;;;;20.48;10.18;;;;;;;3.12;92.24;95639.53;5107667;28;20055;-76
2022/04/05 07:20:11;;;;;;;22.73;11.10;;;;;;;3.13;92.05;95639.25;5106583;28;20122;-76
2022/04/05 07:22:45;;;;;;;23.05;11.45;;;;;;;3.10;92.26;95639.03;5107042;28;20054;-75
2022/04/05 07:25:13;;;;;;;23.33;11.13;;;;;;;3.12;92.15;95642.22;5106068;28;20138;-75
2022/04/05 07:27:39;;;;;;;25.60;10.57;;;;;;;3.19;91.95;95636.50;5107825;28;20051;-75
2022/04/05 07:30:07;;;;;;;46.30;12.15;;;;;;;3.22;91.40;95636.72;5106045;28;20075;-75
2022/04/05 07:32:36;;;;;;;32.53;11.07;;;;;;;3.26;92.01;95636.94;5107129;28;20158;-76
2022/04/05 07:35:03;;;;;;;24.45;10.40;;;;;;;3.28;91.52;95634.75;5106523;28;20062;-75
2022/04/05 07:37:30;;;;;;;37.65;11.63;;;;;;;3.36;91.59;95648.38;5107034;28;20048;-75
2022/04/05 07:39:58;;;;;;;29.13;10.77;;;;;;;3.36;91.56;95637.59;5106863;28;20215;-75
2022/04/05 07:42:26;;;;;;;31.27;11.45;;;;;;;3.41;91.18;95628.66;5105836;28;20735;-76
2022/04/05 07:44:53;;;;;;;27.38;11.30;;;;;;;3.38;90.62;95624.66;5107001;28;20607;-75
2022/04/05 07:47:19;;;;;;;29.70;11.43;;;;;;;3.39;90.62;95631.66;5106099;28;20047;-75
2022/04/05 07:49:46;;;;;;;26.38;10.77;;;;;;;3.39;91.00;95633.53;5107289;28;20082;-76
2022/04/05 07:52:14;;;;;;;20.45;10.55;;;;;;;3.43;91.03;95631.06;5104775;28;20054;-76
2022/04/05 07:54:41;;;;;;;20.90;10.55;;;;;;;3.47;91.26;95626.72;5106874;28;20509;-76
2022/04/05 07:57:09;;;;;;;20.25;9.65;;;;;;;3.50;91.15;95626.94;5106051;28;20048;-75
2022/04/05 07:59:38;;;;;;;23.88;10.68;;;;;;;3.48;91.07;95636.38;5107037;28;20051;-76
2022/04/05 08:02:04;;;;;;;25.02;10.45;;;;;;;3.48;90.78;95636.38;5105651;28;20058;-75
2022/04/05 08:04:31;;;;;;;23.90;10.70;;;;;;;3.52;91.23;95637.41;5106395;28;20055;-76
2022/04/05 08:06:58;;;;;;;22.40;10.57;;;;;;;3.49;91.20;95637.97;5106989;28;20051;-76
2022/04/05 08:09:24;;;;;;;26.17;11.57;;;;;;;3.50;91.21;95635.00;5105517;28;20039;-77
2022/04/05 08:11:51;;;;;;;19.67;9.07;;;;;;;3.57;91.57;95631.94;5106982;28;20047;-76
2022/04/05 08:14:17;;;;;;;16.92;9.45;;;;;;;3.61;91.21;95639.16;5104907;28;20044;-76
2022/04/05 08:16:45;;;;;;;16.17;8.88;;;;;;;3.64;90.86;95648.53;5106970;28;20409;-78
2022/04/05 08:19:12;;;;;;;16.48;8.60;;;;;;;3.65;91.32;95639.34;5105834;28;20075;-77
2022/04/05 08:21:39;;;;;;;18.58;9.77;;;;;;;3.69;91.00;95647.66;5106623;28;20082;-76
2022/04/05 08:24:07;;;;;;;17.05;8.90;;;;;;;3.75;91.17;95655.38;5106301;28;20055;-76
2022/04/05 08:26:34;;;;;;;15.20;9.18;;;;;;;3.82;90.50;95647.75;5106911;28;20081;-77
2022/04/05 08:29:00;;;;;;;16.05;8.75;;;;;;;3.89;91.07;95650.06;5106468;28;20088;-77
2022/04/05 08:31:27;;;;;;;15.00;8.80;;;;;;;4.00;91.38;95656.09;5105253;28;20048;-75
2022/04/05 08:33:55;;;;;;;12.90;8.65;;;;;;;4.03;90.60;95659.00;5106076;28;20048;-76
2022/04/05 08:36:22;;;;;;;16.63;8.65;;;;;;;4.02;89.96;95659.28;5105207;28;20048;-76
2022/04/05 08:38:48;;;;;;;14.85;7.68;;;;;;;4.09;90.54;95651.66;5107113;28;20047;-77
2022/04/05 08:41:19;;;;;;;13.38;7.95;;;;;;;4.11;90.52;95652.16;5104839;28;20051;-77
2022/04/05 08:43:48;;;;;;;12.35;7.22;;;;;;;4.12;90.21;95653.75;5106524;28;20051;-77
2022/04/05 08:46:15;;;;;;;12.23;7.65;;;;;;;4.08;89.58;95653.53;5105668;28;20506;-77
2022/04/05 08:48:46;;;;;;;10.82;7.05;;;;;;;4.12;89.93;95664.50;5106192;28;20051;-77
2022/04/05 08:51:15;;;;;;;12.45;6.70;;;;;;;4.16;90.43;95663.63;5105308;28;20575;-77
2022/04/05 08:53:42;;;;;;;10.25;6.72;;;;;;;4.14;89.84;95663.16;5105570;28;20043;-77
2022/04/05 08:56:08;;;;;;;12.48;7.78;;;;;;;4.08;90.84;95664.31;5106072;28;20051;-77
2022/04/05 08:58:35;;;;;;;11.25;7.47;;;;;;;4.13;91.29;95656.16;5105963;28;20054;-77
2022/04/05 09:01:01;;;;;;;13.13;7.53;;;;;;;4.16;91.17;95668.22;5105841;28;20058;-74
2022/04/05 09:03:32;;;;;;;12.15;6.93;;;;;;;4.22;90.80;95667.06;5105292;28;20054;-79
2022/04/05 09:06:19;;;;;;;10.98;7.13;;;;;;;4.30;90.09;95658.31;5109039;28;20636;-78
2022/04/05 09:08:48;;;;;;;11.15;6.70;;;;;;;4.34;90.06;95669.31;5109659;28;20050;-77
2022/04/05 09:11:20;;;;;;;12.20;6.95;;;;;;;4.31;89.93;95684.16;5108457;27;20051;-78
2022/04/05 09:13:58;;;;;;;14.45;7.18;;;;;;;4.33;88.88;95665.00;5109678;27;20055;-77
2022/04/05 09:16:31;;;;;;;12.75;6.95;;;;;;;4.27;88.76;95669.66;5068283;28;20068;-78
2022/04/05 09:18:58;;;;;;;12.45;7.20;;;;;;;4.36;88.99;95673.28;5105572;27;20059;-78
2022/04/05 09:21:24;;;;;;;10.73;6.35;;;;;;;4.49;88.26;95673.63;5108494;27;20050;-75
2022/04/05 09:23:53;;;;;;;11.43;7.25;;;;;;;4.65;87.87;95672.28;5109491;27;20044;-76
2022/04/05 09:26:22;;;;;;;8.82;6.10;;;;;;;4.78;86.46;95682.28;5108898;27;20067;-76
2022/04/05 09:28:50;;;;;;;13.27;7.47;;;;;;;4.77;86.12;95686.09;5109164;27;20079;-75
2022/04/05 09:31:18;;;;;;;10.50;6.85;;;;;;;4.84;85.52;95686.50;5108729;27;20048;-76
2022/04/05 09:34:03;;;;;;;9.57;6.65;;;;;;;4.81;85.14;95686.31;5108211;27;20521;-75
2022/04/05 09:36:36;;;;;;;10.77;6.50;;;;;;;4.95;85.48;95687.91;5109270;27;20071;-76
2022/04/05 09:39:18;;;;;;;11.75;6.70;;;;;;;4.94;85.78;95685.50;5109631;27;20044;-76
2022/04/05 09:41:45;;;;;;;10.77;6.38;;;;;;;4.95;85.26;95687.91;5109491;27;20146;-76
2022/04/05 09:44:12;;;;;;;11.23;6.78;;;;;;;4.87;86.31;95688.59;5103717;27;20055;-75
2022/04/05 09:46:42;;;;;;;10.32;6.32;;;;;;;4.94;86.41;95680.91;5088838;28;20052;-75
2022/04/05 09:49:11;;;;;;;10.15;6.70;;;;;;;4.89;87.29;95678.31;5088418;28;20052;-75
2022/04/05 09:51:40;;;;;;;11.73;7.10;;;;;;;4.87;87.79;95687.81;5087950;28;20113;-75
2022/04/05 09:54:08;;;;;;;11.43;7.10;;;;;;;4.94;88.01;95686.31;5088569;28;20056;-76
2022/04/05 09:56:39;;;;;;;11.80;7.15;;;;;;;4.97;86.84;95690.31;5088346;28;20521;-76
2022/04/05 09:59:13;;;;;;;11.10;7.32;;;;;;;5.07;87.61;95686.63;5088735;28;20075;-76
2022/04/05 10:01:41;;;;;;;12.00;6.63;;;;;;;5.08;86.54;95688.22;5088186;28;20064;-76
2022/04/05 10:04:09;;;;;;;12.90;7.43;;;;;;;5.09;87.24;95684.44;5087835;28;20048;-75
2022/04/05 10:06:39;;;;;;;14.52;6.97;;;;;;;5.06;86.87;95671.50;5088748;28;20052;-76
2022/04/05 10:09:07;;;;;;;11.90;7.20;;;;;;;5.22;87.62;95678.25;5087632;28;20052;-76
2022/04/05 10:11:37;;;;;;;13.75;7.25;;;;;;;5.26;86.46;95681.91;5088014;28;20414;-76
2022/04/05 10:14:04;;;;;;;18.83;8.02;;;;;;;5.30;86.26;95674.81;5086899;28;20055;-75
2022/04/05 10:16:32;;;;;;;13.20;8.07;;;;;;;5.42;87.23;95680.50;5088454;28;20052;-76
2022/04/05 10:19:00;;;;;;;11.48;6.55;;;;;;;5.45;86.27;95674.53;5087586;28;20055;-76
2022/04/05 10:21:28;;;;;;;13.45;7.35;;;;;;;5.58;86.96;95681.00;5087604;28;20539;-76
2022/04/05 10:23:56;;;;;;;13.35;8.10;;;;;;;5.67;86.14;95673.00;5087043;28;20055;-76
2022/04/05 10:26:25;;;;;;;11.93;7.20;;;;;;;5.70;85.17;95673.19;5087349;28;20721;-76
2022/04/05 10:28:54;;;;;;;18.70;7.53;;;;;;;5.88;85.29;95682.25;5087590;28;20530;-76
2022/04/05 10:31:27;;;;;;;10.93;6.20;;;;;;;5.82;83.06;95672.66;5087022;28;20043;-75
2022/04/05 10:34:04;;;;;;;11.02;7.28;;;;;;;5.99;84.59;95667.44;5087880;28;20048;-76
2022/04/05 10:36:32;;;;;;;11.48;6.70;;;;;;;6.08;82.52;95669.41;5107683;27;20124;-76
2022/04/05 10:39:19;;;;;;;13.50;6.55;;;;;;;6.19;82.47;95668.06;5108615;28;20127;-75
2022/04/05 10:42:20;;;;;;;11.23;6.85;;;;;;;6.16;81.27;95677.59;5107391;28;20063;-75
2022/04/05 10:45:09;;;;;;;13.02;7.03;;;;;;;6.07;80.86;95674.03;5107345;28;20138;-77
2022/04/05 10:48:01;;;;;;;13.27;6.90;;;;;;;6.25;82.20;95666.84;5109012;27;20046;-77
2022/04/05 10:50:29;;;;;;;9.88;6.68;;;;;;;6.33;81.72;95666.13;5107811;27;20465;-75
2022/04/05 10:53:13;;;;;;;10.98;6.72;;;;;;;6.48;80.43;95665.75;5108139;27;20055;-76
2022/04/05 10:56:14;;;;;;;10.70;7.10;;;;;;;6.41;79.47;95664.56;5108314;28;20051;-76
2022/04/05 10:59:02;;;;;;;13.52;7.40;;;;;;;6.57;80.44;95664.97;5100499;28;20085;-75
2022/04/05 11:01:42;;;;;;;11.50;6.78;;;;;;;6.68;79.91;95671.72;5107370;28;20043;-76
2022/04/05 11:04:30;;;;;;;13.20;7.25;;;;;;;6.52;79.00;95671.31;5107297;28;20548;-76
2022/04/05 11:07:11;;;;;;;10.85;6.90;;;;;;;6.64;80.10;95670.78;5107882;28;20050;-76
2022/04/05 11:09:43;;;;;;;11.57;7.10;;;;;;;6.61;80.80;95664.06;5107717;28;20054;-76
2022/04/05 11:12:13;;;;;;;11.73;6.90;;;;;;;6.78;80.23;95671.47;5106068;28;20406;-76
2022/04/05 11:14:41;;;;;;;9.60;6.70;;;;;;;6.97;79.12;95663.94;5114661;27;20054;-76
2022/04/05 11:17:10;;;;;;;9.95;6.25;;;;;;;6.81;78.06;95670.88;5127105;27;20527;-76
2022/04/05 11:19:38;;;;;;;9.68;6.07;;;;;;;6.95;78.12;95666.16;5128648;27;20054;-75
2022/04/05 11:22:05;;;;;;;11.02;7.50;;;;;;;6.86;76.90;95661.81;5127800;27;20070;-75
2022/04/05 11:24:51;;;;;;;8.80;6.28;;;;;;;6.82;77.70;95661.63;5127734;27;20062;-77
2022/04/05 11:27:29;;;;;;;12.07;5.93;;;;;;;6.99;79.46;95659.00;5126542;27;20763;-76
2022/04/05 11:30:44;;;;;;;9.93;6.53;;;;;;;7.22;79.17;95658.94;5127103;27;20082;-76
2022/04/05 11:33:34;;;;;;;9.55;5.95;;;;;;;7.44;77.86;95650.72;5042969;28;20060;-76
2022/04/05 11:36:02;;;;;;;12.95;6.47;;;;;;;7.51;77.59;95651.06;5120626;27;20047;-76
2022/04/05 11:38:33;;;;;;;13.00;7.28;;;;;;;7.61;77.86;95655.38;5127375;27;20049;-76